Time;durP1;ratioP1;P1;durP2;ratioP2;P2;SDS_P1;SDS_P2;PMS_P1;PMS_P2;Temp;Humidity;BMP_temperature;BMP_pressure;BME280_temperature;BME280_humidity;BME280_pressure;Samples;Min_cycle;Max_cycle;Signal;HPM_P1;HPM_P2
2023/03/20 00:00:29;;;;;;;41.42;25.30;;;;;;;;;;5062666;28;20032;-70
2023/03/20 00:03:15;;;;;;;35.90;23.23;;;;;;;;;;5077553;28;20020;-71
2023/03/20 00:06:00;;;;;;;37.88;23.73;;;;;;;;;;5078488;28;20044;-70
2023/03/20 00:08:47;;;;;;;36.67;22.83;;;;;;;;;;5064004;28;20453;-70
2023/03/20 00:11:33;;;;;;;38.13;24.25;;;;;;;;;;5065001;28;20444;-71
2023/03/20 00:14:21;;;;;;;42.08;25.90;;;;;;;;;;5088143;28;20445;-70
2023/03/20 00:17:16;;;;;;;38.67;24.02;;;;;;;;;;5083451;28;20082;-69
2023/03/20 00:20:02;;;;;;;41.15;23.65;;;;;;;;;;5069079;28;20052;-71
2023/03/20 00:22:48;;;;;;;38.35;23.85;;;;;;;;;;5078541;28;20025;-71
2023/03/20 00:25:35;;;;;;;36.55;22.65;;;;;;;;;;5077794;28;20082;-70
2023/03/20 00:28:23;;;;;;;38.33;23.02;;;;;;;;;;5063493;28;20177;-70
2023/03/20 00:31:29;;;;;;;36.92;22.55;;;;;;;;;;5077248;28;20480;-70
2023/03/20 00:34:16;;;;;;;37.95;22.92;;;;;;;;;;5078274;28;20096;-71
2023/03/20 00:37:02;;;;;;;36.35;23.15;;;;;;;;;;5078096;28;20020;-70
2023/03/20 00:39:48;;;;;;;36.42;23.13;;;;;;;;;;5078624;28;20381;-69
2023/03/20 00:42:33;;;;;;;37.40;23.85;;;;;;;;;;5078509;28;20078;-70
2023/03/20 00:45:20;;;;;;;39.00;23.73;;;;;;;;;;5076500;28;20020;-71
2023/03/20 00:48:05;;;;;;;43.40;24.70;;;;;;;;;;5077495;28;20074;-69
2023/03/20 00:50:51;;;;;;;40.78;24.27;;;;;;;;;;5077614;28;20394;-70
2023/03/20 00:53:36;;;;;;;37.45;23.75;;;;;;;;;;5076621;28;20024;-70
2023/03/20 00:56:22;;;;;;;44.47;24.15;;;;;;;;;;5078041;28;20020;-70
2023/03/20 00:59:13;;;;;;;38.47;23.92;;;;;;;;;;5076465;28;20413;-70
2023/03/20 01:02:00;;;;;;;42.47;24.40;;;;;;;;;;5077065;28;20020;-69
2023/03/20 01:04:47;;;;;;;36.58;22.83;;;;;;;;;;5076331;28;20429;-70
2023/03/20 01:07:33;;;;;;;38.60;22.17;;;;;;;;;;5061919;28;20139;-70
2023/03/20 01:10:18;;;;;;;35.30;21.70;;;;;;;;;;5075898;28;20012;-70
2023/03/20 01:13:09;;;;;;;37.50;21.98;;;;;;;;;;5062515;28;20056;-70
2023/03/20 01:15:56;;;;;;;37.45;22.48;;;;;;;;;;5062158;28;20036;-70
2023/03/20 01:18:42;;;;;;;34.88;22.10;;;;;;;;;;5076119;28;20017;-70
2023/03/20 01:21:28;;;;;;;35.78;21.85;;;;;;;;;;5062008;28;20013;-70
2023/03/20 01:24:13;;;;;;;36.30;21.00;;;;;;;;;;5076174;28;20085;-70
2023/03/20 01:27:02;;;;;;;37.38;21.92;;;;;;;;;;5077074;28;20309;-70
2023/03/20 01:29:48;;;;;;;35.78;20.80;;;;;;;;;;5076664;28;20055;-70
2023/03/20 01:32:34;;;;;;;34.72;21.10;;;;;;;;;;5075994;28;20035;-70
2023/03/20 01:35:20;;;;;;;32.70;20.25;;;;;;;;;;5076266;28;20021;-70
2023/03/20 01:38:24;;;;;;;36.13;21.23;;;;;;;;;;5076241;28;20032;-70
2023/03/20 01:41:10;;;;;;;37.33;22.33;;;;;;;;;;5061528;28;20085;-70
2023/03/20 01:43:55;;;;;;;36.95;21.70;;;;;;;;;;5063021;28;20016;-70
2023/03/20 01:46:41;;;;;;;39.90;23.50;;;;;;;;;;5062019;28;20013;-70
2023/03/20 01:49:27;;;;;;;34.95;22.23;;;;;;;;;;5061472;28;20024;-70
2023/03/20 01:52:12;;;;;;;40.95;22.55;;;;;;;;;;5076083;28;20030;-70
2023/03/20 01:54:58;;;;;;;34.85;22.02;;;;;;;;;;5076823;28;20021;-71
2023/03/20 01:57:44;;;;;;;36.92;23.10;;;;;;;;;;5075517;28;20017;-71
2023/03/20 02:00:29;;;;;;;39.95;23.42;;;;;;;;;;5076271;28;20024;-70
2023/03/20 02:03:15;;;;;;;41.08;22.88;;;;;;;;;;5076200;28;20016;-70
2023/03/20 02:06:01;;;;;;;39.65;22.98;;;;;;;;;;5076105;28;20051;-70
2023/03/20 02:08:48;;;;;;;34.90;21.67;;;;;;;;;;5076016;28;20107;-71
2023/03/20 02:11:35;;;;;;;35.95;21.05;;;;;;;;;;5075855;28;20365;-70
2023/03/20 02:14:21;;;;;;;33.20;20.33;;;;;;;;;;5061827;28;20068;-70
2023/03/20 02:17:08;;;;;;;35.05;20.50;;;;;;;;;;5074924;28;20468;-69
2023/03/20 02:19:56;;;;;;;33.72;19.55;;;;;;;;;;5075912;28;20035;-71
2023/03/20 02:22:48;;;;;;;32.50;19.52;;;;;;;;;;5075171;28;20119;-70
2023/03/20 02:25:53;;;;;;;33.50;18.08;;;;;;;;;;5075221;28;20021;-69
2023/03/20 02:28:41;;;;;;;33.85;18.30;;;;;;;;;;5073235;28;20024;-70
2023/03/20 02:31:30;;;;;;;29.75;17.70;;;;;;;;;;5074997;28;20044;-71
2023/03/20 02:34:28;;;;;;;31.60;19.13;;;;;;;;;;5061049;28;20021;-70
2023/03/20 02:37:32;;;;;;;33.33;19.20;;;;;;;;;;5074684;28;20052;-70
2023/03/20 02:40:24;;;;;;;33.17;20.52;;;;;;;;;;5073100;28;20035;-70
2023/03/20 02:43:12;;;;;;;32.83;19.13;;;;;;;;;;5076044;28;20097;-69
2023/03/20 02:46:04;;;;;;;36.20;19.40;;;;;;;;;;5074650;28;20021;-71
2023/03/20 02:48:49;;;;;;;36.28;19.55;;;;;;;;;;5074383;28;20437;-70
2023/03/20 02:51:41;;;;;;;36.08;20.05;;;;;;;;;;5074586;28;20024;-70
2023/03/20 02:54:31;;;;;;;32.08;19.60;;;;;;;;;;5060329;28;20471;-70
2023/03/20 02:57:34;;;;;;;34.85;20.08;;;;;;;;;;5074569;28;20111;-70
2023/03/20 03:00:27;;;;;;;32.72;19.75;;;;;;;;;;5074643;28;20318;-70
2023/03/20 03:03:17;;;;;;;31.40;18.95;;;;;;;;;;5075222;28;20349;-69
2023/03/20 03:06:32;;;;;;;33.08;19.92;;;;;;;;;;5074721;28;20048;-70
2023/03/20 03:09:19;;;;;;;35.05;19.70;;;;;;;;;;5067224;28;20039;-70
2023/03/20 03:12:20;;;;;;;37.40;20.25;;;;;;;;;;5073300;28;20085;-70
2023/03/20 03:15:12;;;;;;;34.10;19.38;;;;;;;;;;5074373;28;20052;-70
2023/03/20 03:17:59;;;;;;;33.05;20.13;;;;;;;;;;5074515;28;20457;-70
2023/03/20 03:20:46;;;;;;;35.45;19.83;;;;;;;;;;5074062;28;20035;-70
2023/03/20 03:23:39;;;;;;;34.85;20.10;;;;;;;;;;5074391;28;20032;-70
2023/03/20 03:26:26;;;;;;;33.50;19.98;;;;;;;;;;5075034;28;20017;-70
2023/03/20 03:29:14;;;;;;;33.25;20.17;;;;;;;;;;5074660;28;20025;-69
2023/03/20 03:32:01;;;;;;;36.85;20.70;;;;;;;;;;5060525;28;20025;-70
2023/03/20 03:34:47;;;;;;;35.33;20.42;;;;;;;;;;5073082;28;20021;-70
2023/03/20 03:37:33;;;;;;;35.97;20.70;;;;;;;;;;5074930;28;20345;-70
2023/03/20 03:40:36;;;;;;;37.58;22.13;;;;;;;;;;5074213;28;20025;-70
2023/03/20 03:43:33;;;;;;;38.35;20.65;;;;;;;;;;5059946;28;20012;-71
2023/03/20 03:46:25;;;;;;;37.13;20.85;;;;;;;;;;5074310;28;20013;-70
2023/03/20 03:49:14;;;;;;;36.65;20.80;;;;;;;;;;5075541;28;20372;-70
2023/03/20 03:52:02;;;;;;;38.42;21.30;;;;;;;;;;5074109;28;20119;-71
2023/03/20 03:54:54;;;;;;;37.70;21.88;;;;;;;;;;5059466;28;20103;-70
2023/03/20 03:57:48;;;;;;;35.47;21.13;;;;;;;;;;5059531;28;20035;-70
2023/03/20 04:00:34;;;;;;;36.13;22.17;;;;;;;;;;5074669;28;20021;-70
2023/03/20 04:03:23;;;;;;;36.72;21.77;;;;;;;;;;5074540;28;20116;-70
2023/03/20 04:06:10;;;;;;;41.03;23.30;;;;;;;;;;5073913;28;20449;-70
2023/03/20 04:08:55;;;;;;;38.60;23.10;;;;;;;;;;5074582;28;20043;-71
2023/03/20 04:11:42;;;;;;;41.80;23.48;;;;;;;;;;5060128;28;20039;-70
2023/03/20 04:14:27;;;;;;;45.90;24.92;;;;;;;;;;5074034;28;20115;-70
2023/03/20 04:17:13;;;;;;;45.88;24.38;;;;;;;;;;5074072;28;20027;-71
2023/03/20 04:19:59;;;;;;;43.83;23.67;;;;;;;;;;5073673;28;20021;-70
2023/03/20 04:22:45;;;;;;;39.75;23.38;;;;;;;;;;5073839;28;20017;-69
2023/03/20 04:25:31;;;;;;;53.97;23.70;;;;;;;;;;5073840;28;20028;-70
2023/03/20 04:28:18;;;;;;;45.58;24.90;;;;;;;;;;5073397;28;20042;-69
2023/03/20 04:31:04;;;;;;;44.08;24.67;;;;;;;;;;5078636;28;20338;-69
2023/03/20 04:33:50;;;;;;;45.22;24.85;;;;;;;;;;5065409;28;20027;-69
2023/03/20 04:36:35;;;;;;;42.42;24.25;;;;;;;;;;5075619;28;20060;-70
2023/03/20 04:39:21;;;;;;;47.85;24.70;;;;;;;;;;5072513;28;20012;-70
2023/03/20 04:42:07;;;;;;;49.88;24.17;;;;;;;;;;5073495;28;20047;-70
2023/03/20 04:44:52;;;;;;;48.70;25.20;;;;;;;;;;5074176;28;20087;-70
2023/03/20 04:47:38;;;;;;;43.45;25.25;;;;;;;;;;5077053;28;20020;-69
2023/03/20 04:50:24;;;;;;;47.08;26.50;;;;;;;;;;5075695;28;20025;-70
2023/03/20 04:53:09;;;;;;;48.78;26.52;;;;;;;;;;5077718;28;20115;-70
2023/03/20 04:55:55;;;;;;;53.67;31.00;;;;;;;;;;5076137;28;20079;-70
2023/03/20 04:58:40;;;;;;;50.72;30.02;;;;;;;;;;5077490;28;20322;-70
2023/03/20 05:01:26;;;;;;;48.65;28.88;;;;;;;;;;5078546;28;20013;-70
2023/03/20 05:04:12;;;;;;;47.25;28.77;;;;;;;;;;5067570;28;20129;-68
2023/03/20 05:06:57;;;;;;;51.50;29.30;;;;;;;;;;5076389;28;20041;-70
2023/03/20 05:09:43;;;;;;;42.55;27.08;;;;;;;;;;5061817;28;20013;-71
2023/03/20 05:12:29;;;;;;;49.05;29.33;;;;;;;;;;5076511;28;20037;-70
2023/03/20 05:15:14;;;;;;;53.65;29.52;;;;;;;;;;5077508;28;20020;-70
2023/03/20 05:18:00;;;;;;;45.40;25.40;;;;;;;;;;5076379;28;20035;-71
2023/03/20 05:20:47;;;;;;;49.28;27.63;;;;;;;;;;5077197;28;20472;-69
2023/03/20 05:23:33;;;;;;;41.30;25.17;;;;;;;;;;5089699;28;20024;-69
2023/03/20 05:26:18;;;;;;;43.45;24.02;;;;;;;;;;5079588;28;20449;-69
2023/03/20 05:29:04;;;;;;;51.40;27.10;;;;;;;;;;5077528;28;20357;-69
2023/03/20 05:31:49;;;;;;;50.10;29.02;;;;;;;;;;5062432;28;20468;-70
2023/03/20 05:34:35;;;;;;;44.63;25.38;;;;;;;;;;5075868;28;20032;-71
2023/03/20 05:37:21;;;;;;;45.83;25.05;;;;;;;;;;5076154;28;20468;-70
2023/03/20 05:40:07;;;;;;;45.05;24.50;;;;;;;;;;5076147;28;20039;-71
2023/03/20 05:42:53;;;;;;;44.92;24.52;;;;;;;;;;5062600;28;20413;-71
2023/03/20 05:45:38;;;;;;;43.72;23.67;;;;;;;;;;5076654;28;20020;-70
2023/03/20 05:48:24;;;;;;;43.05;24.40;;;;;;;;;;5076901;28;20046;-71
2023/03/20 05:51:09;;;;;;;47.45;24.70;;;;;;;;;;5061797;28;20027;-70
2023/03/20 05:53:55;;;;;;;41.88;23.85;;;;;;;;;;5061736;28;20024;-70
2023/03/20 05:56:40;;;;;;;44.63;24.63;;;;;;;;;;5075928;28;20024;-70
2023/03/20 05:59:26;;;;;;;57.95;24.63;;;;;;;;;;5076135;28;20043;-70
2023/03/20 06:02:12;;;;;;;67.30;24.90;;;;;;;;;;5075186;28;20016;-70
2023/03/20 06:04:57;;;;;;;49.85;23.60;;;;;;;;;;5074911;28;20023;-71
2023/03/20 06:07:43;;;;;;;44.83;22.05;;;;;;;;;;5075763;28;20139;-70
2023/03/20 06:10:29;;;;;;;38.38;22.17;;;;;;;;;;5075667;28;20101;-71
2023/03/20 06:13:14;;;;;;;39.65;22.13;;;;;;;;;;5075933;28;20104;-70
2023/03/20 06:16:00;;;;;;;40.55;21.20;;;;;;;;;;5076580;28;20016;-70
2023/03/20 06:18:45;;;;;;;41.13;19.83;;;;;;;;;;5074804;28;20024;-70
2023/03/20 06:21:31;;;;;;;38.17;21.58;;;;;;;;;;5075701;28;20028;-69
2023/03/20 06:24:16;;;;;;;52.08;23.73;;;;;;;;;;5061087;28;20029;-71
2023/03/20 06:27:02;;;;;;;46.53;25.58;;;;;;;;;;5060341;28;20029;-72
2023/03/20 06:29:48;;;;;;;49.03;24.80;;;;;;;;;;5075043;28;20028;-70
2023/03/20 06:32:33;;;;;;;55.35;26.15;;;;;;;;;;5074701;28;20017;-70
2023/03/20 06:35:19;;;;;;;48.78;28.35;;;;;;;;;;5075732;28;20024;-70
2023/03/20 06:38:05;;;;;;;46.80;28.40;;;;;;;;;;5060737;28;20032;-70
2023/03/20 06:40:50;;;;;;;50.30;29.42;;;;;;;;;;5074768;28;20039;-70
2023/03/20 06:43:36;;;;;;;50.03;29.63;;;;;;;;;;5074461;28;20032;-70
2023/03/20 06:46:21;;;;;;;42.15;23.63;;;;;;;;;;5075090;28;20517;-69
2023/03/20 06:49:07;;;;;;;38.13;21.45;;;;;;;;;;5074720;28;20059;-70
2023/03/20 06:51:53;;;;;;;34.30;21.17;;;;;;;;;;5075160;28;20074;-71
2023/03/20 06:54:38;;;;;;;35.88;19.48;;;;;;;;;;5074382;28;20025;-70
2023/03/20 06:57:24;;;;;;;29.33;17.83;;;;;;;;;;5075122;28;20463;-70
2023/03/20 07:00:10;;;;;;;33.15;19.00;;;;;;;;;;5073373;28;20086;-70
2023/03/20 07:02:55;;;;;;;29.77;19.13;;;;;;;;;;5074746;28;20051;-69
2023/03/20 07:05:41;;;;;;;32.28;17.02;;;;;;;;;;5074892;28;20044;-70
2023/03/20 07:08:26;;;;;;;30.92;16.65;;;;;;;;;;5074072;28;20051;-70
2023/03/20 07:11:13;;;;;;;29.55;17.00;;;;;;;;;;5074706;28;20051;-70
2023/03/20 07:14:00;;;;;;;33.33;17.63;;;;;;;;;;5074546;28;20121;-70
2023/03/20 07:16:45;;;;;;;29.05;17.58;;;;;;;;;;5074826;28;20032;-69
2023/03/20 07:19:31;;;;;;;31.65;16.98;;;;;;;;;;5074704;28;20067;-70
2023/03/20 07:22:19;;;;;;;31.42;16.92;;;;;;;;;;5074419;28;20020;-70
2023/03/20 07:25:05;;;;;;;27.35;16.73;;;;;;;;;;5074863;28;20038;-70
2023/03/20 07:27:51;;;;;;;27.38;16.20;;;;;;;;;;5075655;28;20009;-70
2023/03/20 07:30:36;;;;;;;25.23;15.35;;;;;;;;;;5073579;28;20016;-70
2023/03/20 07:33:22;;;;;;;27.88;15.85;;;;;;;;;;5074613;28;20063;-70
2023/03/20 07:36:08;;;;;;;22.95;14.18;;;;;;;;;;5075273;28;20031;-70
2023/03/20 07:38:53;;;;;;;22.95;14.85;;;;;;;;;;5074048;28;20551;-71
2023/03/20 07:41:39;;;;;;;25.60;15.30;;;;;;;;;;5074428;28;20020;-70
2023/03/20 07:44:24;;;;;;;26.50;14.80;;;;;;;;;;5074159;28;20013;-70
2023/03/20 07:47:10;;;;;;;22.45;14.32;;;;;;;;;;5074356;28;20421;-71
2023/03/20 07:49:56;;;;;;;23.40;14.18;;;;;;;;;;5074965;28;20043;-69
2023/03/20 07:52:48;;;;;;;25.45;15.88;;;;;;;;;;5074243;28;20017;-70
2023/03/20 07:55:33;;;;;;;23.67;15.13;;;;;;;;;;5074301;28;20025;-70
2023/03/20 07:58:19;;;;;;;48.67;16.63;;;;;;;;;;5059938;28;20483;-70
2023/03/20 08:01:05;;;;;;;27.23;15.43;;;;;;;;;;5059924;28;20029;-70
2023/03/20 08:03:50;;;;;;;22.15;14.27;;;;;;;;;;5074273;28;20008;-70
2023/03/20 08:06:38;;;;;;;22.88;15.10;;;;;;;;;;5074513;28;20048;-70
2023/03/20 08:09:23;;;;;;;23.10;14.45;;;;;;;;;;5074364;28;20383;-70
2023/03/20 08:12:09;;;;;;;21.45;14.27;;;;;;;;;;5073036;28;20033;-71
2023/03/20 08:14:55;;;;;;;20.98;14.18;;;;;;;;;;5059515;28;20039;-70
2023/03/20 08:17:41;;;;;;;19.33;13.82;;;;;;;;;;5073378;28;20029;-70
2023/03/20 08:20:27;;;;;;;28.25;14.00;;;;;;;;;;5074875;28;20111;-70
2023/03/20 08:23:12;;;;;;;23.67;14.05;;;;;;;;;;5077668;28;20017;-71
2023/03/20 08:25:58;;;;;;;22.77;15.02;;;;;;;;;;5077736;28;20044;-70
2023/03/20 08:28:43;;;;;;;20.00;13.50;;;;;;;;;;5078252;28;20036;-71
2023/03/20 08:31:30;;;;;;;102.13;23.65;;;;;;;;;;5077388;28;20020;-72
2023/03/20 08:34:16;;;;;;;29.95;14.32;;;;;;;;;;5078266;28;20028;-71
2023/03/20 08:37:02;;;;;;;21.75;13.88;;;;;;;;;;5077586;28;20013;-70
2023/03/20 08:39:48;;;;;;;22.42;14.27;;;;;;;;;;5077705;28;20028;-71
2023/03/20 08:42:33;;;;;;;21.63;14.55;;;;;;;;;;5077069;28;20413;-71
2023/03/20 08:45:19;;;;;;;20.17;13.45;;;;;;;;;;5077530;28;20054;-70
2023/03/20 08:48:05;;;;;;;32.08;14.73;;;;;;;;;;5076488;28;20162;-70
2023/03/20 08:50:50;;;;;;;28.98;14.35;;;;;;;;;;5077791;28;20062;-70
2023/03/20 08:53:36;;;;;;;18.40;12.52;;;;;;;;;;5062637;28;20024;-70
2023/03/20 08:56:21;;;;;;;19.52;13.20;;;;;;;;;;5077494;28;20468;-70
2023/03/20 08:59:07;;;;;;;25.08;13.88;;;;;;;;;;5076846;28;20407;-70
2023/03/20 09:01:53;;;;;;;20.63;13.20;;;;;;;;;;5075468;28;20507;-70
2023/03/20 09:04:38;;;;;;;23.25;14.10;;;;;;;;;;5076641;28;20039;-71
2023/03/20 09:07:24;;;;;;;17.70;12.63;;;;;;;;;;5075686;28;20377;-70
2023/03/20 09:10:11;;;;;;;28.10;15.05;;;;;;;;;;5077364;28;20034;-70
2023/03/20 09:12:57;;;;;;;21.67;13.05;;;;;;;;;;5076725;28;20111;-70
2023/03/20 09:15:43;;;;;;;20.98;13.30;;;;;;;;;;5077000;28;20086;-70
2023/03/20 09:18:28;;;;;;;20.35;12.55;;;;;;;;;;5063157;28;20330;-70
2023/03/20 09:21:14;;;;;;;20.80;11.82;;;;;;;;;;5076661;28;20330;-70
2023/03/20 09:23:59;;;;;;;22.63;13.70;;;;;;;;;;5076065;28;20027;-71
2023/03/20 09:26:45;;;;;;;19.55;13.13;;;;;;;;;;5076444;28;20374;-70
2023/03/20 09:29:31;;;;;;;19.40;13.55;;;;;;;;;;5076323;28;20028;-72
2023/03/20 09:32:16;;;;;;;21.73;13.20;;;;;;;;;;5074509;28;20337;-71
2023/03/20 09:35:02;;;;;;;19.27;12.55;;;;;;;;;;5076762;28;20040;-70
2023/03/20 09:37:48;;;;;;;19.45;12.48;;;;;;;;;;5076430;28;20034;-71
2023/03/20 09:40:53;;;;;;;16.88;11.80;;;;;;;;;;5076677;28;20032;-71
2023/03/20 09:44:01;;;;;;;21.60;11.98;;;;;;;;;;5075741;28;20032;-70
2023/03/20 09:46:55;;;;;;;20.48;13.55;;;;;;;;;;5075767;28;20074;-70
2023/03/20 09:50:10;;;;;;;20.02;11.95;;;;;;;;;;5075180;28;20021;-71
2023/03/20 09:53:06;;;;;;;18.77;12.35;;;;;;;;;;5067976;28;20400;-70
2023/03/20 09:55:52;;;;;;;17.42;12.00;;;;;;;;;;5075862;28;20028;-71
2023/03/20 09:58:38;;;;;;;21.92;12.82;;;;;;;;;;5075231;28;20111;-71
2023/03/20 10:01:32;;;;;;;19.25;13.18;;;;;;;;;;5076153;28;20090;-71
2023/03/20 10:04:18;;;;;;;25.52;13.02;;;;;;;;;;5075321;28;20084;-71
2023/03/20 10:07:04;;;;;;;20.27;13.70;;;;;;;;;;5078371;28;20036;-71
2023/03/20 10:09:50;;;;;;;19.42;12.98;;;;;;;;;;5075626;28;20032;-71
2023/03/20 10:12:36;;;;;;;18.27;13.30;;;;;;;;;;5061620;28;20492;-71
2023/03/20 10:15:44;;;;;;;19.17;13.25;;;;;;;;;;5075622;28;20024;-70
2023/03/20 10:18:31;;;;;;;17.95;12.35;;;;;;;;;;5077133;28;20020;-72
2023/03/20 10:21:22;;;;;;;20.52;10.68;;;;;;;;;;5061773;28;20107;-71
2023/03/20 10:24:14;;;;;;;16.98;11.52;;;;;;;;;;5076794;28;20092;-71
2023/03/20 10:27:04;;;;;;;15.52;10.05;;;;;;;;;;5075364;28;20445;-71
2023/03/20 10:29:59;;;;;;;18.77;11.30;;;;;;;;;;5075264;28;20079;-71
2023/03/20 10:32:55;;;;;;;16.35;10.40;;;;;;;;;;5075072;28;20030;-70
2023/03/20 10:36:04;;;;;;;18.17;10.77;;;;;;;;;;5064021;28;20040;-71
2023/03/20 10:39:00;;;;;;;15.63;10.73;;;;;;;;;;5062544;28;20024;-71
2023/03/20 10:41:57;;;;;;;17.25;9.48;;;;;;;;;;5074120;28;20099;-70
2023/03/20 10:44:47;;;;;;;17.25;9.73;;;;;;;;;;5074872;28;20059;-71
2023/03/20 10:47:35;;;;;;;15.73;10.65;;;;;;;;;;5075667;28;20016;-71
2023/03/20 10:50:42;;;;;;;19.13;10.35;;;;;;;;;;5075246;28;20100;-71
2023/03/20 10:53:28;;;;;;;16.17;10.20;;;;;;;;;;5078229;28;20048;-70
2023/03/20 10:56:15;;;;;;;15.25;10.15;;;;;;;;;;5078348;28;20469;-70
2023/03/20 10:59:10;;;;;;;14.68;9.32;;;;;;;;;;5086201;28;20075;-70
2023/03/20 11:01:55;;;;;;;25.60;12.02;;;;;;;;;;5074889;28;20086;-70
2023/03/20 11:04:41;;;;;;;12.18;8.98;;;;;;;;;;5061639;28;20020;-71
2023/03/20 11:07:30;;;;;;;13.18;8.70;;;;;;;;;;5074183;28;20495;-71
2023/03/20 11:10:16;;;;;;;13.55;8.63;;;;;;;;;;5060384;28;20056;-71
2023/03/20 11:13:15;;;;;;;13.40;8.98;;;;;;;;;;5075231;28;20024;-71
2023/03/20 11:16:27;;;;;;;14.30;9.63;;;;;;;;;;5074521;28;20020;-72
2023/03/20 11:19:13;;;;;;;12.65;8.23;;;;;;;;;;5073950;28;20024;-71
2023/03/20 11:22:00;;;;;;;11.25;7.15;;;;;;;;;;5074820;28;20027;-70
2023/03/20 11:24:46;;;;;;;9.20;6.60;;;;;;;;;;5074959;28;20020;-71
2023/03/20 11:27:32;;;;;;;8.85;6.22;;;;;;;;;;5075367;28;20323;-70
2023/03/20 11:30:18;;;;;;;13.15;6.30;;;;;;;;;;5074364;28;20495;-70
2023/03/20 11:33:04;;;;;;;8.80;5.80;;;;;;;;;;5073565;28;20032;-71
2023/03/20 11:35:51;;;;;;;9.25;5.47;;;;;;;;;;5074010;28;20330;-70
2023/03/20 11:38:42;;;;;;;13.55;5.90;;;;;;;;;;5074720;28;20094;-70
2023/03/20 11:41:27;;;;;;;23.08;15.40;;;;;;;;;;5074724;28;20024;-71
2023/03/20 11:44:21;;;;;;;40.42;24.33;;;;;;;;;;5073652;28;20017;-71
2023/03/20 11:47:13;;;;;;;13.35;9.25;;;;;;;;;;5059249;28;20052;-69
2023/03/20 11:50:00;;;;;;;13.13;8.52;;;;;;;;;;5074588;28;20039;-70
2023/03/20 11:52:45;;;;;;;12.02;7.88;;;;;;;;;;5074605;28;20028;-71
2023/03/20 11:55:32;;;;;;;17.13;9.75;;;;;;;;;;5075980;28;20437;-70
2023/03/20 11:58:18;;;;;;;30.98;9.80;;;;;;;;;;5078449;28;20029;-70
2023/03/20 12:01:06;;;;;;;19.83;9.90;;;;;;;;;;5077610;28;20056;-70
2023/03/20 12:03:57;;;;;;;12.30;8.30;;;;;;;;;;5078601;28;20043;-71
2023/03/20 12:06:50;;;;;;;12.55;9.02;;;;;;;;;;5063406;28;20040;-71
2023/03/20 12:09:35;;;;;;;16.63;9.30;;;;;;;;;;5078389;28;20032;-69
2023/03/20 12:12:24;;;;;;;14.10;9.32;;;;;;;;;;5063708;28;20112;-70
2023/03/20 12:15:13;;;;;;;18.23;9.60;;;;;;;;;;5078793;28;20406;-71
2023/03/20 12:18:09;;;;;;;12.93;8.80;;;;;;;;;;5077732;28;20026;-70
2023/03/20 12:21:03;;;;;;;13.30;8.32;;;;;;;;;;5076594;28;20130;-71
2023/03/20 12:23:55;;;;;;;12.13;8.63;;;;;;;;;;5076882;28;20024;-71
2023/03/20 12:26:46;;;;;;;18.00;9.07;;;;;;;;;;5078824;28;20390;-71
2023/03/20 12:29:38;;;;;;;25.70;9.73;;;;;;;;;;5078027;28;20047;-70
2023/03/20 12:32:24;;;;;;;15.25;9.98;;;;;;;;;;5077075;28;20013;-71
2023/03/20 12:35:16;;;;;;;10.85;8.20;;;;;;;;;;5078355;28;20021;-71
2023/03/20 12:38:02;;;;;;;13.32;8.48;;;;;;;;;;5077832;28;20024;-70
2023/03/20 12:40:50;;;;;;;14.38;8.02;;;;;;;;;;5077299;28;20031;-70
2023/03/20 12:43:50;;;;;;;15.77;8.23;;;;;;;;;;5077316;28;20096;-72
2023/03/20 12:46:41;;;;;;;12.75;8.50;;;;;;;;;;5063201;28;20048;-69
2023/03/20 12:49:39;;;;;;;11.80;8.57;;;;;;;;;;5077533;28;20036;-71
2023/03/20 12:52:28;;;;;;;13.02;8.80;;;;;;;;;;5078844;28;20020;-71
2023/03/20 12:55:16;;;;;;;13.35;8.40;;;;;;;;;;5077242;28;20035;-70
2023/03/20 12:58:05;;;;;;;25.13;9.07;;;;;;;;;;5078885;28;20027;-70
2023/03/20 13:01:06;;;;;;;12.20;6.45;;;;;;;;;;5063166;28;20043;-70
2023/03/20 13:03:57;;;;;;;11.50;7.28;;;;;;;;;;5077717;28;20016;-71
2023/03/20 13:06:53;;;;;;;10.10;6.93;;;;;;;;;;5075888;28;20072;-71
2023/03/20 13:09:39;;;;;;;11.32;7.40;;;;;;;;;;5076964;28;20052;-71
2023/03/20 13:12:25;;;;;;;10.85;7.47;;;;;;;;;;5076467;28;20111;-71
2023/03/20 13:15:22;;;;;;;10.82;7.05;;;;;;;;;;5076583;28;20035;-71
2023/03/20 13:18:31;;;;;;;11.15;7.82;;;;;;;;;;5077972;28;20020;-72
2023/03/20 13:21:23;;;;;;;13.15;7.30;;;;;;;;;;5076163;28;20051;-71
2023/03/20 13:24:21;;;;;;;11.50;7.40;;;;;;;;;;5076586;28;20455;-71
2023/03/20 13:27:14;;;;;;;13.45;7.28;;;;;;;;;;5062854;28;20033;-71
2023/03/20 13:30:19;;;;;;;11.80;7.38;;;;;;;;;;5076657;28;20449;-70
2023/03/20 13:33:23;;;;;;;14.68;7.40;;;;;;;;;;5077125;28;20036;-71
2023/03/20 13:36:23;;;;;;;12.23;6.63;;;;;;;;;;5076517;28;20082;-72
2023/03/20 13:39:17;;;;;;;9.75;6.32;;;;;;;;;;5075713;28;20024;-72
2023/03/20 13:42:05;;;;;;;13.55;6.70;;;;;;;;;;5077041;28;20028;-70
2023/03/20 13:45:01;;;;;;;11.02;6.72;;;;;;;;;;5075894;28;20027;-71
2023/03/20 13:47:47;;;;;;;11.63;7.57;;;;;;;;;;5076611;28;20345;-71
2023/03/20 13:50:40;;;;;;;10.55;6.72;;;;;;;;;;5076146;28;20024;-71
2023/03/20 13:53:25;;;;;;;14.18;7.15;;;;;;;;;;5076164;28;20441;-71
2023/03/20 13:56:29;;;;;;;13.68;6.97;;;;;;;;;;5075324;28;20036;-70
2023/03/20 13:59:34;;;;;;;9.60;6.25;;;;;;;;;;5076179;28;20020;-71
2023/03/20 14:02:22;;;;;;;13.43;6.00;;;;;;;;;;5075291;28;20092;-72
2023/03/20 14:05:13;;;;;;;9.02;6.00;;;;;;;;;;5075316;28;20028;-71
2023/03/20 14:08:19;;;;;;;13.13;6.97;;;;;;;;;;5076292;28;20037;-71
2023/03/20 14:11:23;;;;;;;9.40;6.53;;;;;;;;;;5075777;28;20115;-70
2023/03/20 14:14:24;;;;;;;14.75;5.93;;;;;;;;;;5076082;28;20021;-72
2023/03/20 14:17:17;;;;;;;10.45;6.32;;;;;;;;;;5076167;28;20412;-71
2023/03/20 14:20:11;;;;;;;24.13;7.20;;;;;;;;;;5075572;28;20203;-70
2023/03/20 14:22:57;;;;;;;10.57;6.85;;;;;;;;;;5075402;28;20020;-70
2023/03/20 14:25:42;;;;;;;11.38;6.38;;;;;;;;;;5074787;28;20103;-70
2023/03/20 14:28:32;;;;;;;13.63;7.15;;;;;;;;;;5074955;28;20016;-71
2023/03/20 14:31:23;;;;;;;10.20;6.80;;;;;;;;;;5075516;28;20186;-71
2023/03/20 14:34:11;;;;;;;11.98;6.53;;;;;;;;;;5074675;28;20024;-71
2023/03/20 14:36:58;;;;;;;14.70;9.13;;;;;;;;;;5062110;28;20024;-69
2023/03/20 14:39:53;;;;;;;11.45;7.38;;;;;;;;;;5075667;28;20024;-70
2023/03/20 14:42:46;;;;;;;11.10;6.00;;;;;;;;;;5075117;28;20107;-70
2023/03/20 14:45:43;;;;;;;12.70;6.18;;;;;;;;;;5074898;28;20016;-70
2023/03/20 14:48:36;;;;;;;8.15;5.85;;;;;;;;;;5075599;28;20024;-71
2023/03/20 14:51:22;;;;;;;17.70;10.02;;;;;;;;;;5075364;28;20028;-69
2023/03/20 14:54:19;;;;;;;9.45;5.90;;;;;;;;;;5074975;28;20025;-70
2023/03/20 14:57:14;;;;;;;8.88;5.80;;;;;;;;;;5074182;28;20024;-71
2023/03/20 15:00:00;;;;;;;11.80;5.97;;;;;;;;;;5060407;28;20110;-70
2023/03/20 15:02:47;;;;;;;12.35;6.80;;;;;;;;;;5074641;28;20107;-70
2023/03/20 15:05:34;;;;;;;8.90;6.00;;;;;;;;;;5075801;28;20078;-70
2023/03/20 15:08:26;;;;;;;8.50;5.43;;;;;;;;;;5075394;28;20024;-70
2023/03/20 15:11:13;;;;;;;8.10;6.30;;;;;;;;;;5074888;28;20029;-70
2023/03/20 15:14:00;;;;;;;13.63;6.10;;;;;;;;;;5075388;28;20021;-70
2023/03/20 15:16:46;;;;;;;10.02;6.85;;;;;;;;;;5083938;28;20372;-70
2023/03/20 15:19:32;;;;;;;10.05;6.00;;;;;;;;;;5074309;28;20027;-71
2023/03/20 15:22:19;;;;;;;9.60;6.88;;;;;;;;;;5074536;28;20048;-71
2023/03/20 15:25:05;;;;;;;8.52;6.50;;;;;;;;;;5074677;28;20048;-71
2023/03/20 15:27:50;;;;;;;10.23;6.57;;;;;;;;;;5076688;28;20008;-71
2023/03/20 15:30:37;;;;;;;9.73;6.93;;;;;;;;;;5060446;28;20025;-71
2023/03/20 15:33:27;;;;;;;9.77;6.28;;;;;;;;;;5075030;28;20021;-70
2023/03/20 15:36:21;;;;;;;10.27;6.65;;;;;;;;;;5086054;28;20085;-69
2023/03/20 15:39:14;;;;;;;13.90;7.10;;;;;;;;;;5078567;28;20024;-71
2023/03/20 15:42:03;;;;;;;9.52;6.70;;;;;;;;;;5074164;28;20020;-71
2023/03/20 15:44:51;;;;;;;18.63;6.93;;;;;;;;;;5074642;28;20043;-71
2023/03/20 15:47:36;;;;;;;13.05;6.68;;;;;;;;;;5059934;28;20021;-70
2023/03/20 15:50:22;;;;;;;9.77;6.30;;;;;;;;;;5073092;28;20463;-71
2023/03/20 15:53:10;;;;;;;8.95;6.40;;;;;;;;;;5072941;28;20035;-70
2023/03/20 15:56:06;;;;;;;11.80;7.07;;;;;;;;;;5074459;28;20039;-71
2023/03/20 15:58:52;;;;;;;12.43;6.32;;;;;;;;;;5074738;28;20361;-70
2023/03/20 16:01:38;;;;;;;14.88;6.90;;;;;;;;;;5074641;28;20021;-70
2023/03/20 16:04:24;;;;;;;16.80;7.25;;;;;;;;;;5058589;28;20032;-71
2023/03/20 16:07:19;;;;;;;15.13;7.32;;;;;;;;;;5073868;28;20040;-71
2023/03/20 16:10:32;;;;;;;13.35;7.40;;;;;;;;;;5073832;28;20024;-70
2023/03/20 16:13:18;;;;;;;12.40;7.65;;;;;;;;;;5074104;28;20119;-70
2023/03/20 16:16:04;;;;;;;15.85;8.85;;;;;;;;;;5074865;28;20499;-71
2023/03/20 16:18:50;;;;;;;20.70;9.05;;;;;;;;;;5074045;28;20024;-70
2023/03/20 16:21:37;;;;;;;15.18;8.50;;;;;;;;;;5074031;28;20108;-72
2023/03/20 16:24:33;;;;;;;15.80;8.10;;;;;;;;;;5074710;28;20323;-71
2023/03/20 16:27:24;;;;;;;21.42;8.88;;;;;;;;;;5072297;28;20122;-71